createdAt,value
2022-09-02T00:00:08.116Z,10.50
2022-09-02T00:00:34.835Z,10.50
2022-09-02T00:00:54.285Z,10.38
2022-09-02T00:01:26.348Z,10.38
2022-09-02T00:01:58.294Z,10.38
2022-09-02T00:02:30.373Z,10.38
2022-09-02T00:03:02.369Z,10.61
2022-09-02T00:03:34.194Z,10.38
2022-09-02T00:04:06.349Z,10.38
2022-09-02T00:04:33.883Z,10.38
2022-09-02T00:04:54.367Z,10.50
2022-09-02T00:05:26.281Z,10.50
2022-09-02T00:05:58.210Z,10.50
2022-09-02T00:06:30.277Z,10.50
2022-09-02T00:07:02.392Z,10.38
2022-09-02T00:07:35.720Z,10.38
2022-09-02T00:08:06.409Z,10.38
2022-09-02T00:08:37.185Z,10.27
2022-09-02T00:08:54.263Z,10.27
2022-09-02T00:09:26.360Z,10.61
2022-09-02T00:09:58.318Z,10.61
2022-09-02T00:10:30.245Z,10.61
2022-09-02T00:11:03.561Z,10.77
2022-09-02T00:11:34.884Z,10.61
2022-09-02T00:12:06.312Z,10.77
2022-09-02T00:12:33.887Z,10.77
2022-09-02T00:12:54.317Z,10.61
2022-09-02T00:13:26.299Z,10.27
2022-09-02T00:13:58.179Z,10.72
2022-09-02T00:14:30.200Z,10.50
2022-09-02T00:15:02.388Z,10.50
2022-09-02T00:15:33.962Z,10.50
2022-09-02T00:15:50.329Z,10.50
2022-09-02T00:16:22.829Z,10.50
2022-09-02T00:16:40.009Z,10.50
2022-09-02T00:17:10.252Z,10.50
2022-09-02T00:17:33.932Z,10.50
2022-09-02T00:17:59.073Z,10.38
2022-09-02T00:18:30.184Z,10.38
2022-09-02T00:19:02.283Z,10.38
2022-09-02T00:19:33.854Z,10.38
2022-09-02T00:19:55.531Z,10.38
2022-09-02T00:20:22.185Z,10.38
2022-09-02T00:20:39.356Z,10.61
2022-09-02T00:21:10.208Z,10.38
2022-09-02T00:21:33.897Z,10.38
2022-09-02T00:21:59.280Z,10.38
2022-09-02T00:22:30.202Z,10.61
2022-09-02T00:23:02.295Z,10.61
2022-09-02T00:23:34.313Z,10.61
2022-09-02T00:24:06.383Z,10.77
2022-09-02T00:24:33.885Z,10.61
2022-09-02T00:24:54.301Z,10.50
2022-09-02T00:25:26.306Z,10.77
2022-09-02T00:25:58.205Z,10.72
2022-09-02T00:26:30.806Z,10.72
2022-09-02T00:27:02.558Z,10.72
2022-09-02T00:27:33.930Z,10.72
2022-09-02T00:27:50.277Z,10.38
2022-09-02T00:28:22.242Z,10.27
2022-09-02T00:28:39.403Z,10.27
2022-09-02T00:29:10.576Z,10.11
2022-09-02T00:29:33.971Z,10.22
2022-09-02T00:29:58.403Z,10.38
2022-09-02T00:30:30.320Z,10.50
2022-09-02T00:31:03.197Z,10.50
2022-09-02T00:31:34.675Z,10.50
2022-09-02T00:32:06.527Z,10.38
2022-09-02T00:32:33.854Z,10.22
2022-09-02T00:32:54.288Z,10.38
2022-09-02T00:33:26.199Z,10.72
2022-09-02T00:33:58.206Z,10.38
2022-09-02T00:34:30.240Z,10.38
2022-09-02T00:35:02.272Z,10.50
2022-09-02T00:35:33.893Z,10.50
2022-09-02T00:36:06.640Z,10.72
2022-09-02T00:36:33.914Z,10.72
2022-09-02T00:36:54.285Z,10.38
2022-09-02T00:37:28.054Z,10.72
2022-09-02T00:37:59.202Z,10.72
2022-09-02T00:38:30.224Z,10.38
2022-09-02T00:39:17.991Z,10.38
2022-09-02T00:39:51.261Z,10.72
2022-09-02T00:40:22.278Z,10.38
2022-09-02T00:40:39.900Z,10.38
2022-09-02T00:41:10.201Z,10.27
2022-09-02T00:41:33.957Z,10.27
2022-09-02T00:41:58.792Z,10.27
2022-09-02T00:42:30.217Z,10.27
2022-09-02T00:43:02.249Z,10.27
2022-09-02T00:43:33.926Z,10.61
2022-09-02T00:44:06.230Z,10.61
2022-09-02T00:44:33.929Z,10.27
2022-09-02T00:44:54.244Z,10.61
2022-09-02T00:45:26.417Z,10.61
2022-09-02T00:46:00.373Z,10.72
2022-09-02T00:46:30.376Z,10.72
2022-09-02T00:47:02.995Z,10.61
2022-09-02T00:47:35.229Z,10.61
2022-09-02T00:48:07.017Z,10.61
2022-09-02T00:48:33.914Z,10.61
2022-09-02T00:48:55.031Z,10.61
2022-09-02T00:49:26.231Z,10.50
2022-09-02T00:49:59.139Z,10.61
2022-09-02T00:50:30.162Z,10.50
2022-09-02T00:51:02.286Z,10.61
2022-09-02T00:51:33.913Z,10.61
2022-09-02T00:51:50.271Z,10.50
2022-09-02T00:52:22.189Z,10.61
2022-09-02T00:52:40.291Z,10.61
2022-09-02T00:53:10.198Z,10.50
2022-09-02T00:53:33.866Z,10.50
2022-09-02T00:53:58.198Z,10.61
2022-09-02T00:54:30.202Z,10.50
2022-09-02T00:55:02.677Z,10.50
2022-09-02T00:55:33.900Z,10.50
2022-09-02T00:55:50.285Z,10.50
2022-09-02T00:56:22.259Z,10.61
2022-09-02T00:56:39.367Z,10.61
2022-09-02T00:57:10.110Z,10.50
2022-09-02T00:57:34.004Z,10.50
2022-09-02T00:57:58.863Z,10.50
2022-09-02T00:58:30.225Z,10.61
2022-09-02T00:59:02.231Z,10.61
2022-09-02T00:59:33.892Z,10.61
2022-09-02T01:00:06.786Z,10.61
2022-09-02T01:00:36.578Z,10.38
2022-09-02T01:00:54.375Z,10.61
2022-09-02T01:01:26.280Z,10.61
2022-09-02T01:01:58.367Z,10.61
2022-09-02T01:02:30.257Z,10.77
2022-09-02T01:03:02.207Z,10.61
2022-09-02T01:03:34.606Z,10.38
2022-09-02T01:04:11.213Z,10.38
2022-09-02T01:04:33.985Z,10.38
2022-09-02T01:04:54.804Z,10.61
2022-09-02T01:05:27.335Z,10.61
2022-09-02T01:05:58.250Z,10.61
2022-09-02T01:06:30.273Z,10.61
2022-09-02T01:07:02.192Z,10.61
2022-09-02T01:07:33.897Z,10.61
2022-09-02T01:08:06.251Z,10.61
2022-09-02T01:08:34.586Z,10.38
2022-09-02T01:08:54.244Z,10.61
2022-09-02T01:09:26.195Z,10.50
2022-09-02T01:09:58.954Z,10.50
2022-09-02T01:10:30.193Z,10.61
2022-09-02T01:11:02.286Z,10.50
2022-09-02T01:11:34.795Z,10.50
2022-09-02T01:12:06.210Z,10.61
2022-09-02T01:12:33.907Z,10.61
2022-09-02T01:12:54.233Z,10.61
2022-09-02T01:13:26.199Z,10.61
2022-09-02T01:13:58.182Z,10.61
2022-09-02T01:14:30.165Z,10.61
2022-09-02T01:15:03.280Z,10.38
2022-09-02T01:15:33.951Z,10.38
2022-09-02T01:16:06.252Z,10.61
2022-09-02T01:16:34.058Z,10.61
2022-09-02T01:16:54.220Z,10.77
2022-09-02T01:17:27.504Z,10.38
2022-09-02T01:17:58.132Z,10.61
2022-09-02T01:18:30.169Z,10.77
2022-09-02T01:19:02.232Z,10.77
2022-09-02T01:19:33.954Z,10.77
2022-09-02T01:20:07.527Z,10.61
2022-09-02T01:20:36.123Z,10.61
2022-09-02T01:20:54.302Z,10.27
2022-09-02T01:21:26.252Z,10.27
2022-09-02T01:21:59.207Z,10.50
2022-09-02T01:22:30.234Z,10.72
2022-09-02T01:23:02.194Z,10.72
2022-09-02T01:23:34.935Z,10.88
2022-09-02T01:24:06.280Z,10.88
2022-09-02T01:24:33.906Z,10.72
2022-09-02T01:24:54.157Z,10.61
2022-09-02T01:25:26.175Z,10.61
2022-09-02T01:25:58.208Z,10.77
2022-09-02T01:26:30.137Z,10.77
2022-09-02T01:27:02.508Z,10.77
2022-09-02T01:27:33.882Z,10.77
2022-09-02T01:28:07.434Z,10.77
2022-09-02T01:28:33.946Z,10.77
2022-09-02T01:28:54.147Z,10.77
2022-09-02T01:29:27.575Z,10.61
2022-09-02T01:29:59.478Z,10.38
2022-09-02T01:30:30.165Z,10.22
2022-09-02T01:31:02.379Z,10.22
2022-09-02T01:31:34.004Z,10.50
2022-09-02T01:32:06.209Z,10.72
2022-09-02T01:32:33.928Z,10.72
2022-09-02T01:32:54.130Z,10.72
2022-09-02T01:33:26.190Z,10.72
2022-09-02T01:33:58.226Z,10.72
2022-09-02T01:34:30.149Z,10.50
2022-09-02T01:35:02.176Z,10.27
2022-09-02T01:35:33.929Z,10.27
2022-09-02T01:36:06.195Z,10.38
2022-09-02T01:36:34.062Z,10.38
2022-09-02T01:36:54.164Z,10.38
2022-09-02T01:37:26.078Z,10.38
2022-09-02T01:37:58.165Z,10.38
2022-09-02T01:38:30.441Z,10.38
2022-09-02T01:39:03.216Z,10.61
2022-09-02T01:39:34.059Z,10.61
2022-09-02T01:40:06.588Z,10.50
2022-09-02T01:40:34.124Z,10.27
2022-09-02T01:40:54.195Z,10.27
2022-09-02T01:41:26.132Z,10.27
2022-09-02T01:41:59.181Z,10.27
2022-09-02T01:42:32.065Z,10.27
2022-09-02T01:43:02.730Z,10.38
2022-09-02T01:43:33.902Z,10.38
2022-09-02T01:44:07.223Z,10.61
2022-09-02T01:44:34.746Z,10.61
2022-09-02T01:44:55.161Z,10.77
2022-09-02T01:45:27.173Z,10.77
2022-09-02T01:45:58.190Z,10.77
2022-09-02T01:46:30.214Z,10.72
2022-09-02T01:47:02.292Z,10.72
2022-09-02T01:47:34.017Z,10.72
2022-09-02T01:48:06.138Z,10.38
2022-09-02T01:48:33.965Z,10.38
2022-09-02T01:48:54.186Z,10.38
2022-09-02T01:49:26.172Z,10.38
2022-09-02T01:49:58.320Z,10.00
2022-09-02T01:50:30.877Z,10.22
2022-09-02T01:51:03.277Z,10.27
2022-09-02T01:51:34.062Z,10.61
2022-09-02T01:52:06.107Z,10.61
2022-09-02T01:52:33.988Z,10.61
2022-09-02T01:52:54.213Z,10.77
2022-09-02T01:53:26.132Z,10.77
2022-09-02T01:53:59.004Z,10.50
2022-09-02T01:54:30.133Z,10.50
2022-09-02T01:55:03.305Z,10.38
2022-09-02T01:55:35.320Z,10.38
2022-09-02T01:56:07.188Z,10.61
2022-09-02T01:56:34.783Z,10.61
2022-09-02T01:56:55.050Z,10.61
2022-09-02T01:57:26.180Z,10.61
2022-09-02T01:57:58.153Z,10.38
2022-09-02T01:58:31.054Z,10.61
2022-09-02T01:59:02.158Z,10.38
2022-09-02T01:59:34.120Z,10.22
2022-09-02T02:00:08.285Z,10.11
2022-09-02T02:00:35.402Z,10.27
2022-09-02T02:00:54.244Z,10.11
2022-09-02T02:01:26.119Z,10.38
2022-09-02T02:01:58.235Z,10.38
2022-09-02T02:02:30.134Z,10.61
2022-09-02T02:03:02.131Z,10.61
2022-09-02T02:03:35.502Z,10.61
2022-09-02T02:04:07.538Z,10.72
2022-09-02T02:04:33.916Z,10.72
2022-09-02T02:04:54.779Z,10.61
2022-09-02T02:05:26.116Z,10.38
2022-09-02T02:05:59.090Z,10.38
2022-09-02T02:06:30.136Z,10.38
2022-09-02T02:07:03.155Z,10.27
2022-09-02T02:07:34.010Z,10.27
2022-09-02T02:08:06.158Z,10.61
2022-09-02T02:08:33.946Z,10.61
2022-09-02T02:08:54.975Z,10.38
2022-09-02T02:09:26.129Z,10.22
2022-09-02T02:09:58.975Z,10.38
2022-09-02T02:10:31.172Z,10.61
2022-09-02T02:11:02.139Z,10.77
2022-09-02T02:11:33.982Z,10.61
2022-09-02T02:12:06.153Z,10.22
2022-09-02T02:12:34.045Z,10.22
2022-09-02T02:12:54.213Z,10.22
2022-09-02T02:13:27.480Z,10.38
2022-09-02T02:13:58.137Z,10.38
2022-09-02T02:14:30.192Z,10.38
2022-09-02T02:15:02.981Z,10.61
2022-09-02T02:15:34.074Z,10.61
2022-09-02T02:16:06.337Z,10.61
2022-09-02T02:16:33.998Z,10.38
2022-09-02T02:16:54.138Z,10.38
2022-09-02T02:17:26.162Z,10.38
2022-09-02T02:17:59.383Z,10.38
2022-09-02T02:18:30.166Z,10.27
2022-09-02T02:19:02.132Z,10.27
2022-09-02T02:19:34.007Z,10.11
2022-09-02T02:20:07.533Z,10.11
2022-09-02T02:20:34.623Z,10.11
2022-09-02T02:20:54.251Z,9.77
2022-09-02T02:21:26.113Z,10.22
2022-09-02T02:21:59.259Z,10.50
2022-09-02T02:22:31.237Z,10.50
2022-09-02T02:23:02.923Z,10.27
2022-09-02T02:23:34.167Z,10.27
2022-09-02T02:24:07.593Z,10.38
2022-09-02T02:24:34.160Z,10.22
2022-09-02T02:24:55.183Z,10.22
2022-09-02T02:25:26.072Z,9.88
2022-09-02T02:25:59.170Z,10.22
2022-09-02T02:26:30.190Z,10.38
2022-09-02T02:27:02.528Z,10.61
2022-09-02T02:27:33.981Z,10.38
2022-09-02T02:28:06.149Z,10.38
2022-09-02T02:28:34.076Z,10.38
2022-09-02T02:28:54.265Z,10.22
2022-09-02T02:29:26.248Z,10.22
2022-09-02T02:29:58.518Z,10.38
2022-09-02T02:30:30.368Z,10.38
2022-09-02T02:31:02.232Z,10.38
2022-09-02T02:31:34.893Z,10.38
2022-09-02T02:32:06.262Z,10.27
2022-09-02T02:32:34.035Z,10.11
2022-09-02T02:32:55.273Z,10.11
2022-09-02T02:33:31.936Z,10.11
2022-09-02T02:33:58.221Z,10.11
2022-09-02T02:34:30.300Z,10.11
2022-09-02T02:35:02.094Z,10.11
2022-09-02T02:35:34.028Z,10.27
2022-09-02T02:36:08.505Z,10.11
2022-09-02T02:36:34.006Z,10.11
2022-09-02T02:36:54.136Z,10.11
2022-09-02T02:37:26.141Z,10.27
2022-09-02T02:37:59.283Z,10.11
2022-09-02T02:38:31.039Z,10.11
2022-09-02T02:39:02.181Z,10.11
2022-09-02T02:39:34.623Z,10.11
2022-09-02T02:40:07.491Z,10.50
2022-09-02T02:40:35.014Z,10.38
2022-09-02T02:40:54.300Z,10.22
2022-09-02T02:41:26.089Z,10.00
2022-09-02T02:41:59.061Z,10.00
2022-09-02T02:42:30.198Z,10.00
2022-09-02T02:43:02.164Z,10.11
2022-09-02T02:43:33.980Z,10.11
2022-09-02T02:44:06.136Z,10.11
2022-09-02T02:44:34.012Z,10.27
2022-09-02T02:44:54.254Z,10.27
2022-09-02T02:45:26.871Z,10.22
2022-09-02T02:45:58.229Z,10.22
2022-09-02T02:46:30.197Z,10.11
2022-09-02T02:47:02.291Z,10.11
2022-09-02T02:47:33.935Z,10.11
2022-09-02T02:48:06.098Z,10.11
2022-09-02T02:48:33.983Z,10.11
2022-09-02T02:48:54.239Z,10.22
2022-09-02T02:49:26.080Z,10.22
2022-09-02T02:49:58.366Z,10.22
2022-09-02T02:50:30.728Z,10.00
2022-09-02T02:51:02.110Z,9.88
2022-09-02T02:51:35.174Z,9.88
2022-09-02T02:52:07.474Z,10.11
2022-09-02T02:52:34.017Z,10.11
2022-09-02T02:52:54.106Z,10.11
2022-09-02T02:53:27.505Z,10.11
2022-09-02T02:53:59.033Z,10.11
2022-09-02T02:54:34.901Z,10.11
2022-09-02T02:55:02.084Z,9.88
2022-09-02T02:55:34.516Z,10.11
2022-09-02T02:56:06.081Z,10.27
2022-09-02T02:56:34.154Z,10.11
2022-09-02T02:56:57.471Z,10.27
2022-09-02T02:57:26.059Z,10.27
2022-09-02T02:57:58.338Z,10.11
2022-09-02T02:58:30.154Z,9.88
2022-09-02T02:59:02.164Z,10.11
2022-09-02T02:59:33.985Z,10.11
2022-09-02T03:00:06.830Z,10.11
2022-09-02T03:00:34.083Z,10.11
2022-09-02T03:00:54.102Z,10.11
2022-09-02T03:01:26.144Z,9.88
2022-09-02T03:01:58.852Z,10.11
2022-09-02T03:02:30.364Z,10.27
2022-09-02T03:03:02.247Z,10.38
2022-09-02T03:03:34.041Z,10.38
2022-09-02T03:04:06.460Z,10.00
2022-09-02T03:04:34.332Z,10.00
2022-09-02T03:04:54.117Z,10.00
2022-09-02T03:05:26.220Z,9.77
2022-09-02T03:05:58.938Z,9.88
2022-09-02T03:06:30.118Z,10.11
2022-09-02T03:07:02.139Z,10.27
2022-09-02T03:07:34.027Z,10.27
2022-09-02T03:08:06.080Z,10.11
2022-09-02T03:08:34.031Z,10.11
2022-09-02T03:08:55.025Z,10.27
2022-09-02T03:09:26.024Z,10.27
2022-09-02T03:09:58.447Z,10.27
2022-09-02T03:10:30.090Z,10.27
2022-09-02T03:11:03.692Z,10.27
2022-09-02T03:11:34.028Z,10.22
2022-09-02T03:12:06.080Z,10.11
2022-09-02T03:12:34.103Z,10.11
2022-09-02T03:12:54.131Z,10.11
2022-09-02T03:13:26.680Z,10.27
2022-09-02T03:13:58.557Z,10.27
2022-09-02T03:14:30.142Z,9.88
2022-09-02T03:15:02.278Z,10.11
2022-09-02T03:15:34.000Z,10.11
2022-09-02T03:16:06.918Z,9.88
2022-09-02T03:16:34.220Z,9.88
2022-09-02T03:16:54.150Z,9.88
2022-09-02T03:17:26.144Z,9.88
2022-09-02T03:17:58.343Z,10.11
2022-09-02T03:18:30.083Z,9.88
2022-09-02T03:19:02.115Z,9.72
2022-09-02T03:19:34.354Z,9.50
2022-09-02T03:20:06.335Z,9.50
2022-09-02T03:20:34.691Z,9.77
2022-09-02T03:20:54.127Z,9.88
2022-09-02T03:21:26.079Z,9.88
2022-09-02T03:21:58.336Z,10.00
2022-09-02T03:22:30.078Z,10.38
2022-09-02T03:23:02.071Z,9.77
2022-09-02T03:23:34.958Z,9.77
2022-09-02T03:24:06.104Z,9.77
2022-09-02T03:24:33.937Z,9.50
2022-09-02T03:24:54.092Z,9.27
2022-09-02T03:25:26.111Z,9.61
2022-09-02T03:25:58.872Z,10.11
2022-09-02T03:26:30.084Z,10.11
2022-09-02T03:27:02.372Z,10.27
2022-09-02T03:27:34.002Z,10.27
2022-09-02T03:28:06.102Z,10.38
2022-09-02T03:28:34.749Z,10.38
2022-09-02T03:28:54.083Z,10.27
2022-09-02T03:29:26.103Z,10.22
2022-09-02T03:29:58.551Z,10.00
2022-09-02T03:30:30.150Z,10.00
2022-09-02T03:31:03.140Z,10.22
2022-09-02T03:31:34.085Z,10.22
2022-09-02T03:32:06.124Z,9.77
2022-09-02T03:32:34.817Z,9.77
2022-09-02T03:32:59.412Z,10.00
2022-09-02T03:33:26.117Z,10.22
2022-09-02T03:33:58.379Z,10.00
2022-09-02T03:34:30.081Z,9.72
2022-09-02T03:35:02.268Z,9.72
2022-09-02T03:35:34.014Z,9.72
2022-09-02T03:36:06.067Z,9.72
2022-09-02T03:36:33.986Z,9.72
2022-09-02T03:36:54.043Z,9.72
2022-09-02T03:37:26.122Z,9.88
2022-09-02T03:37:58.322Z,9.72
2022-09-02T03:38:30.076Z,9.88
2022-09-02T03:39:02.154Z,9.88
2022-09-02T03:39:34.024Z,9.88
2022-09-02T03:40:06.324Z,9.72
2022-09-02T03:40:34.752Z,9.88
2022-09-02T03:40:54.186Z,9.88
2022-09-02T03:41:26.995Z,9.77
2022-09-02T03:41:58.324Z,9.77
2022-09-02T03:42:30.198Z,9.77
2022-09-02T03:43:02.053Z,9.72
2022-09-02T03:43:36.650Z,9.61
2022-09-02T03:44:06.259Z,9.77
2022-09-02T03:44:34.110Z,9.77
2022-09-02T03:44:54.137Z,9.77
2022-09-02T03:45:26.214Z,9.77
2022-09-02T03:45:58.398Z,9.77
2022-09-02T03:46:30.865Z,9.77
2022-09-02T03:47:02.097Z,9.77
2022-09-02T03:47:33.962Z,9.77
2022-09-02T03:48:06.113Z,9.72
2022-09-02T03:48:34.950Z,9.72
2022-09-02T03:48:54.099Z,9.72
2022-09-02T03:49:26.096Z,9.72
2022-09-02T03:49:58.485Z,9.77
2022-09-02T03:50:30.154Z,9.61
2022-09-02T03:51:02.189Z,9.61
2022-09-02T03:51:34.919Z,9.61
2022-09-02T03:52:06.115Z,9.77
2022-09-02T03:52:34.087Z,9.77
2022-09-02T03:52:54.066Z,9.77
2022-09-02T03:53:26.349Z,9.72
2022-09-02T03:54:01.445Z,9.88
2022-09-02T03:54:30.124Z,9.88
2022-09-02T03:55:02.992Z,9.88
2022-09-02T03:55:35.639Z,9.77
2022-09-02T03:56:10.196Z,9.77
2022-09-02T03:56:33.989Z,9.77
2022-09-02T03:56:54.122Z,9.77
2022-09-02T03:57:26.050Z,9.77
2022-09-02T03:57:58.340Z,9.77
2022-09-02T03:58:30.042Z,9.72
2022-09-02T03:59:02.058Z,9.72
2022-09-02T03:59:33.963Z,9.72
2022-09-02T04:00:06.567Z,9.72
2022-09-02T04:00:34.114Z,9.72
2022-09-02T04:00:55.140Z,9.72
2022-09-02T04:01:27.491Z,9.72
2022-09-02T04:01:58.814Z,9.72
2022-09-02T04:02:30.247Z,9.72
2022-09-02T04:03:02.174Z,9.61
2022-09-02T04:03:33.959Z,9.77
2022-09-02T04:04:06.143Z,9.77
2022-09-02T04:04:33.994Z,9.50
2022-09-02T04:04:55.985Z,9.50
2022-09-02T04:05:26.951Z,9.50
2022-09-02T04:05:58.343Z,9.50
2022-09-02T04:06:32.438Z,9.72
2022-09-02T04:07:02.486Z,9.72
2022-09-02T04:07:33.983Z,9.72
2022-09-02T04:08:06.097Z,9.72
2022-09-02T04:08:34.863Z,9.72
2022-09-02T04:08:54.013Z,9.72
2022-09-02T04:09:26.915Z,9.72
2022-09-02T04:09:58.566Z,9.72
2022-09-02T04:10:30.069Z,9.50
2022-09-02T04:11:02.266Z,9.50
2022-09-02T04:11:33.998Z,9.50
2022-09-02T04:12:06.930Z,9.50
2022-09-02T04:12:34.025Z,9.50
2022-09-02T04:12:54.073Z,9.77
2022-09-02T04:13:26.078Z,9.77
2022-09-02T04:13:58.282Z,9.77
2022-09-02T04:14:30.261Z,9.61
2022-09-02T04:15:02.162Z,9.61
2022-09-02T04:15:34.019Z,9.50
2022-09-02T04:16:06.141Z,9.61
2022-09-02T04:16:34.719Z,9.61
2022-09-02T04:16:55.101Z,9.61
2022-09-02T04:17:26.074Z,9.72
2022-09-02T04:17:58.615Z,9.72
2022-09-02T04:18:30.126Z,9.72
2022-09-02T04:19:02.147Z,9.61
2022-09-02T04:19:34.044Z,9.61
2022-09-02T04:20:07.760Z,9.61
2022-09-02T04:20:34.019Z,9.72
2022-09-02T04:20:54.601Z,9.72
2022-09-02T04:21:26.096Z,9.72
2022-09-02T04:21:58.329Z,9.61
2022-09-02T04:22:30.102Z,9.72
2022-09-02T04:23:02.078Z,9.72
2022-09-02T04:23:34.073Z,9.72
2022-09-02T04:24:06.013Z,9.72
2022-09-02T04:24:34.084Z,9.72
2022-09-02T04:24:54.035Z,9.72
2022-09-02T04:25:27.698Z,9.72
2022-09-02T04:25:58.292Z,9.88
2022-09-02T04:26:30.050Z,9.77
2022-09-02T04:27:04.364Z,9.77
2022-09-02T04:27:34.967Z,9.77
2022-09-02T04:28:06.017Z,9.72
2022-09-02T04:28:35.366Z,9.88
2022-09-02T04:28:54.094Z,9.72
2022-09-02T04:29:27.652Z,9.61
2022-09-02T04:29:58.700Z,9.50
2022-09-02T04:30:29.976Z,9.50
2022-09-02T04:31:02.061Z,9.61
2022-09-02T04:31:36.201Z,9.50
2022-09-02T04:32:06.214Z,9.38
2022-09-02T04:32:38.398Z,9.50
2022-09-02T04:32:54.082Z,9.38
2022-09-02T04:33:26.083Z,9.50
2022-09-02T04:33:58.579Z,9.50
2022-09-02T04:34:30.075Z,9.50
2022-09-02T04:35:03.146Z,9.50
2022-09-02T04:35:34.024Z,9.50
2022-09-02T04:36:06.116Z,9.61
2022-09-02T04:36:34.265Z,9.77
2022-09-02T04:36:55.475Z,9.61
2022-09-02T04:37:26.667Z,9.61
2022-09-02T04:37:58.473Z,9.38
2022-09-02T04:38:30.013Z,9.50
2022-09-02T04:39:02.212Z,9.50
2022-09-02T04:39:34.085Z,9.38
2022-09-02T04:40:06.618Z,9.38
2022-09-02T04:40:35.144Z,9.50
2022-09-02T04:40:55.170Z,9.50
2022-09-02T04:41:26.237Z,9.50
2022-09-02T04:41:58.649Z,9.38
2022-09-02T04:42:30.900Z,9.50
2022-09-02T04:43:02.334Z,9.50
2022-09-02T04:43:35.124Z,9.38
2022-09-02T04:44:06.267Z,9.38
2022-09-02T04:44:34.233Z,9.38
2022-09-02T04:44:54.256Z,9.38
2022-09-02T04:45:29.753Z,9.38
2022-09-02T04:45:58.749Z,9.38
2022-09-02T04:46:34.734Z,9.38
2022-09-02T04:47:02.198Z,9.38
2022-09-02T04:47:34.742Z,9.38
2022-09-02T04:48:06.296Z,9.50
2022-09-02T04:48:36.355Z,9.50
2022-09-02T04:48:55.081Z,9.38
2022-09-02T04:49:26.225Z,9.38
2022-09-02T04:49:58.894Z,9.38
2022-09-02T04:50:30.216Z,9.50
2022-09-02T04:51:02.219Z,9.50
2022-09-02T04:51:34.273Z,9.27
2022-09-02T04:52:09.508Z,9.27
2022-09-02T04:52:34.146Z,9.27
2022-09-02T04:52:54.189Z,9.27
2022-09-02T04:53:26.236Z,9.27
2022-09-02T04:53:58.799Z,9.27
2022-09-02T04:54:30.234Z,9.27
2022-09-02T04:55:02.246Z,9.27
2022-09-02T04:55:35.138Z,9.27
2022-09-02T04:56:06.358Z,9.27
2022-09-02T04:56:34.897Z,9.27
2022-09-02T04:56:54.191Z,9.27
2022-09-02T04:57:26.250Z,9.27
2022-09-02T04:57:59.780Z,9.27
2022-09-02T04:58:30.187Z,9.11
2022-09-02T04:59:02.168Z,9.11
2022-09-02T04:59:35.080Z,9.22
2022-09-02T05:00:06.481Z,9.22
2022-09-02T05:00:34.655Z,9.38
2022-09-02T05:00:54.163Z,9.38
2022-09-02T05:01:27.739Z,9.22
2022-09-02T05:01:58.732Z,9.27
2022-09-02T05:02:30.212Z,9.22
2022-09-02T05:03:02.739Z,9.22
2022-09-02T05:03:34.202Z,9.22
2022-09-02T05:04:06.306Z,9.22
2022-09-02T05:04:34.515Z,9.22
2022-09-02T05:04:54.142Z,9.22
2022-09-02T05:05:26.331Z,9.27
2022-09-02T05:05:58.575Z,9.27
2022-09-02T05:06:31.266Z,9.27
2022-09-02T05:07:02.721Z,9.00
2022-09-02T05:07:34.282Z,9.50
2022-09-02T05:08:07.045Z,9.50
2022-09-02T05:08:34.374Z,9.50
2022-09-02T05:08:55.001Z,9.50
2022-09-02T05:09:26.221Z,9.27
2022-09-02T05:09:59.467Z,9.61
2022-09-02T05:10:30.154Z,9.61
2022-09-02T05:11:02.336Z,9.38
2022-09-02T05:11:34.270Z,9.22
2022-09-02T05:12:06.345Z,9.50
2022-09-02T05:12:34.677Z,9.50
2022-09-02T05:12:54.213Z,9.50
2022-09-02T05:13:26.257Z,9.50
2022-09-02T05:13:59.105Z,9.61
2022-09-02T05:14:31.197Z,9.27
2022-09-02T05:15:02.280Z,9.27
2022-09-02T05:15:36.074Z,9.38
2022-09-02T05:16:06.561Z,9.22
2022-09-02T05:16:34.254Z,9.38
2022-09-02T05:16:54.152Z,9.38
2022-09-02T05:17:26.198Z,9.50
2022-09-02T05:17:58.713Z,9.50
2022-09-02T05:18:31.028Z,9.50
2022-09-02T05:19:02.494Z,9.50
2022-09-02T05:19:35.168Z,9.50
2022-09-02T05:20:06.637Z,9.38
2022-09-02T05:20:34.290Z,9.38
2022-09-02T05:20:55.463Z,9.22
2022-09-02T05:21:26.217Z,9.00
2022-09-02T05:21:58.658Z,9.00
2022-09-02T05:22:30.227Z,9.22
2022-09-02T05:23:02.224Z,9.22
2022-09-02T05:23:34.281Z,9.11
2022-09-02T05:24:06.277Z,9.27
2022-09-02T05:24:35.942Z,9.50
2022-09-02T05:24:54.203Z,9.11
2022-09-02T05:25:26.283Z,8.88
2022-09-02T05:25:58.651Z,8.88
2022-09-02T05:26:30.168Z,8.88
2022-09-02T05:27:02.549Z,8.88
2022-09-02T05:27:34.180Z,9.00
2022-09-02T05:28:06.268Z,8.88
2022-09-02T05:28:34.225Z,9.11
2022-09-02T05:28:54.166Z,8.72
2022-09-02T05:29:26.222Z,9.00
2022-09-02T05:29:58.903Z,9.27
2022-09-02T05:30:30.265Z,9.27
2022-09-02T05:31:02.275Z,9.50
2022-09-02T05:31:34.349Z,9.72
2022-09-02T05:32:06.255Z,9.50
2022-09-02T05:32:37.751Z,9.27
2022-09-02T05:32:54.219Z,9.61
2022-09-02T05:33:26.826Z,9.38
2022-09-02T05:33:58.629Z,9.00
2022-09-02T05:34:30.121Z,9.00
2022-09-02T05:35:02.328Z,9.00
2022-09-02T05:35:34.244Z,9.00
2022-09-02T05:36:06.257Z,9.22
2022-09-02T05:36:34.222Z,9.27
2022-09-02T05:36:55.246Z,9.27
2022-09-02T05:37:26.221Z,9.27
2022-09-02T05:38:00.953Z,9.11
2022-09-02T05:38:32.729Z,9.11
2022-09-02T05:39:02.312Z,9.27
2022-09-02T05:39:34.285Z,9.50
2022-09-02T05:40:06.745Z,9.50
2022-09-02T05:40:34.380Z,9.50
2022-09-02T05:40:54.235Z,9.50
2022-09-02T05:41:26.238Z,9.50
2022-09-02T05:41:59.277Z,9.27
2022-09-02T05:42:30.093Z,9.22
2022-09-02T05:43:02.145Z,9.22
2022-09-02T05:43:35.681Z,9.22
2022-09-02T05:44:06.209Z,9.00
2022-09-02T05:44:34.219Z,9.00
2022-09-02T05:44:54.103Z,9.38
2022-09-02T05:45:26.312Z,9.38
2022-09-02T05:45:59.224Z,9.22
2022-09-02T05:46:31.317Z,9.11
2022-09-02T05:47:03.046Z,9.11
2022-09-02T05:47:34.237Z,9.11
2022-09-02T05:48:06.254Z,9.11
2022-09-02T05:48:34.219Z,9.27
2022-09-02T05:48:54.124Z,9.27
2022-09-02T05:49:29.067Z,9.50
2022-09-02T05:49:59.477Z,9.50
2022-09-02T05:50:31.887Z,9.72
2022-09-02T05:51:02.176Z,9.72
2022-09-02T05:51:34.546Z,9.50
2022-09-02T05:52:06.261Z,9.27
2022-09-02T05:52:36.338Z,9.27
2022-09-02T05:52:54.193Z,9.27
2022-09-02T05:53:26.248Z,9.27
2022-09-02T05:53:58.994Z,9.27
2022-09-02T05:54:30.152Z,9.27
2022-09-02T05:55:02.305Z,8.88
2022-09-02T05:55:34.219Z,8.72
2022-09-02T05:56:06.241Z,8.88
2022-09-02T05:56:34.507Z,8.88
2022-09-02T05:56:54.202Z,9.38
2022-09-02T05:57:26.287Z,9.27
2022-09-02T05:57:58.693Z,9.50
2022-09-02T05:58:30.087Z,9.50
2022-09-02T05:59:02.857Z,9.72
2022-09-02T05:59:34.369Z,9.77
2022-09-02T06:00:07.763Z,9.77
2022-09-02T06:00:34.277Z,9.77
2022-09-02T06:00:55.193Z,9.50
2022-09-02T06:01:26.327Z,9.50
2022-09-02T06:01:58.583Z,9.50
2022-09-02T06:02:30.322Z,9.72
2022-09-02T06:03:02.241Z,9.61
2022-09-02T06:03:35.000Z,9.61
2022-09-02T06:04:06.865Z,9.77
2022-09-02T06:04:34.263Z,9.61
2022-09-02T06:04:54.162Z,9.38
2022-09-02T06:05:26.189Z,9.61
2022-09-02T06:06:03.030Z,9.61
2022-09-02T06:06:30.126Z,9.72
2022-09-02T06:07:02.615Z,9.00
2022-09-02T06:07:34.256Z,9.00
2022-09-02T06:08:06.248Z,9.27
2022-09-02T06:08:34.234Z,9.38
2022-09-02T06:08:55.095Z,9.38
2022-09-02T06:09:26.284Z,9.77
2022-09-02T06:09:59.062Z,9.61
2022-09-02T06:10:30.121Z,9.11
2022-09-02T06:11:02.993Z,9.11
2022-09-02T06:11:34.255Z,9.11
2022-09-02T06:12:06.311Z,9.77
2022-09-02T06:12:34.250Z,9.61
2022-09-02T06:12:54.136Z,9.50
2022-09-02T06:13:26.223Z,9.50
2022-09-02T06:13:58.626Z,9.22
2022-09-02T06:14:30.130Z,9.22
2022-09-02T06:15:02.269Z,9.22
2022-09-02T06:15:35.225Z,9.50
2022-09-02T06:16:06.418Z,9.22
2022-09-02T06:16:34.348Z,9.22
2022-09-02T06:16:54.149Z,8.77
2022-09-02T06:17:26.229Z,9.27
2022-09-02T06:17:58.612Z,9.72
2022-09-02T06:18:30.213Z,9.72
2022-09-02T06:19:02.479Z,9.38
2022-09-02T06:19:34.218Z,9.38
2022-09-02T06:20:06.536Z,9.72
2022-09-02T06:20:34.280Z,9.72
2022-09-02T06:20:54.143Z,9.38
2022-09-02T06:21:26.161Z,9.88
2022-09-02T06:21:59.287Z,9.72
2022-09-02T06:22:30.119Z,9.38
2022-09-02T06:23:02.135Z,9.38
2022-09-02T06:23:34.090Z,9.38
2022-09-02T06:24:06.225Z,9.22
2022-09-02T06:24:34.689Z,9.22
2022-09-02T06:24:54.136Z,9.22
2022-09-02T06:25:29.275Z,9.27
2022-09-02T06:25:59.149Z,9.61
2022-09-02T06:26:30.115Z,9.77
2022-09-02T06:27:02.617Z,9.61
2022-09-02T06:27:34.245Z,9.38
2022-09-02T06:28:07.380Z,9.77
2022-09-02T06:28:34.290Z,10.11
2022-09-02T06:28:54.160Z,10.11
2022-09-02T06:29:26.843Z,10.11